sensor_id;sensor_type;location;lat;lon;timestamp;temperature;humidity
7427;DHT22;3755;59.316;18.092;2023-08-08T00:00:20;17.10;99.90
7427;DHT22;3755;59.316;18.092;2023-08-08T00:02:48;17.10;99.90
7427;DHT22;3755;59.316;18.092;2023-08-08T00:05:15;17.10;99.90
7427;DHT22;3755;59.316;18.092;2023-08-08T00:07:42;17.10;99.90
7427;DHT22;3755;59.316;18.092;2023-08-08T00:10:10;17.10;99.90
7427;DHT22;3755;59.316;18.092;2023-08-08T00:12:37;17.10;99.90
7427;DHT22;3755;59.316;18.092;2023-08-08T00:15:05;17.10;99.90
7427;DHT22;3755;59.316;18.092;2023-08-08T00:17:32;17.10;99.90
7427;DHT22;3755;59.316;18.092;2023-08-08T00:20:02;17.10;99.90
7427;DHT22;3755;59.316;18.092;2023-08-08T00:22:29;17.10;99.90
7427;DHT22;3755;59.316;18.092;2023-08-08T00:24:56;17.10;99.90
7427;DHT22;3755;59.316;18.092;2023-08-08T00:27:24;17.10;99.90
7427;DHT22;3755;59.316;18.092;2023-08-08T00:29:51;17.10;99.90
7427;DHT22;3755;59.316;18.092;2023-08-08T00:32:19;17.00;99.90
7427;DHT22;3755;59.316;18.092;2023-08-08T00:34:46;17.00;99.90
7427;DHT22;3755;59.316;18.092;2023-08-08T00:37:15;17.00;99.90
7427;DHT22;3755;59.316;18.092;2023-08-08T00:39:42;17.00;99.90
7427;DHT22;3755;59.316;18.092;2023-08-08T00:42:11;17.00;99.90
7427;DHT22;3755;59.316;18.092;2023-08-08T00:44:39;16.90;99.90
7427;DHT22;3755;59.316;18.092;2023-08-08T00:47:07;16.90;99.90
7427;DHT22;3755;59.316;18.092;2023-08-08T00:49:35;16.90;99.90
7427;DHT22;3755;59.316;18.092;2023-08-08T00:52:03;16.90;99.90
7427;DHT22;3755;59.316;18.092;2023-08-08T00:54:31;16.90;99.90
7427;DHT22;3755;59.316;18.092;2023-08-08T00:56:58;16.90;99.90
7427;DHT22;3755;59.316;18.092;2023-08-08T00:59:26;16.90;99.90
7427;DHT22;3755;59.316;18.092;2023-08-08T01:01:54;16.90;99.90
7427;DHT22;3755;59.316;18.092;2023-08-08T01:04:22;16.80;99.90
7427;DHT22;3755;59.316;18.092;2023-08-08T01:06:58;16.90;99.90
7427;DHT22;3755;59.316;18.092;2023-08-08T01:09:36;16.90;99.90
7427;DHT22;3755;59.316;18.092;2023-08-08T01:12:05;16.90;99.90
7427;DHT22;3755;59.316;18.092;2023-08-08T01:14:34;16.90;99.90
7427;DHT22;3755;59.316;18.092;2023-08-08T01:17:02;16.90;99.90
7427;DHT22;3755;59.316;18.092;2023-08-08T01:19:31;16.90;99.90
7427;DHT22;3755;59.316;18.092;2023-08-08T01:22:02;16.90;99.90
7427;DHT22;3755;59.316;18.092;2023-08-08T01:24:33;16.90;99.90
7427;DHT22;3755;59.316;18.092;2023-08-08T01:27:03;16.90;99.90
7427;DHT22;3755;59.316;18.092;2023-08-08T01:29:31;16.90;99.90
7427;DHT22;3755;59.316;18.092;2023-08-08T01:31:58;16.90;99.90
7427;DHT22;3755;59.316;18.092;2023-08-08T01:34:25;16.90;99.90
7427;DHT22;3755;59.316;18.092;2023-08-08T01:36:56;16.90;99.90
7427;DHT22;3755;59.316;18.092;2023-08-08T01:39:26;16.80;99.90
7427;DHT22;3755;59.316;18.092;2023-08-08T01:41:56;16.80;99.90
7427;DHT22;3755;59.316;18.092;2023-08-08T01:44:24;16.80;99.90
7427;DHT22;3755;59.316;18.092;2023-08-08T01:46:52;16.80;99.90
7427;DHT22;3755;59.316;18.092;2023-08-08T01:49:19;16.70;99.90
7427;DHT22;3755;59.316;18.092;2023-08-08T01:51:46;16.80;99.90
7427;DHT22;3755;59.316;18.092;2023-08-08T01:54:14;16.80;99.90
7427;DHT22;3755;59.316;18.092;2023-08-08T01:56:41;16.70;99.90
7427;DHT22;3755;59.316;18.092;2023-08-08T01:59:10;16.70;99.90
7427;DHT22;3755;59.316;18.092;2023-08-08T02:01:37;16.70;99.90
7427;DHT22;3755;59.316;18.092;2023-08-08T02:04:04;16.60;99.90
7427;DHT22;3755;59.316;18.092;2023-08-08T02:06:31;16.60;99.90
7427;DHT22;3755;59.316;18.092;2023-08-08T02:08:58;16.60;99.90
7427;DHT22;3755;59.316;18.092;2023-08-08T02:11:26;16.60;99.90
7427;DHT22;3755;59.316;18.092;2023-08-08T02:13:53;16.60;99.90
7427;DHT22;3755;59.316;18.092;2023-08-08T02:16:21;16.60;99.90
7427;DHT22;3755;59.316;18.092;2023-08-08T02:18:48;16.70;99.90
7427;DHT22;3755;59.316;18.092;2023-08-08T02:21:15;16.60;99.90
7427;DHT22;3755;59.316;18.092;2023-08-08T02:23:43;16.60;99.90
7427;DHT22;3755;59.316;18.092;2023-08-08T02:26:10;16.60;99.90
7427;DHT22;3755;59.316;18.092;2023-08-08T02:28:37;16.60;99.90
7427;DHT22;3755;59.316;18.092;2023-08-08T02:31:04;16.60;99.90
7427;DHT22;3755;59.316;18.092;2023-08-08T02:33:32;16.50;99.90
7427;DHT22;3755;59.316;18.092;2023-08-08T02:36:00;16.50;99.90
7427;DHT22;3755;59.316;18.092;2023-08-08T02:38:27;16.50;99.90
7427;DHT22;3755;59.316;18.092;2023-08-08T02:40:54;16.50;99.90
7427;DHT22;3755;59.316;18.092;2023-08-08T02:43:21;16.60;99.90
7427;DHT22;3755;59.316;18.092;2023-08-08T02:45:48;16.60;99.90
7427;DHT22;3755;59.316;18.092;2023-08-08T02:48:15;16.60;99.90
7427;DHT22;3755;59.316;18.092;2023-08-08T02:50:44;16.60;99.90
7427;DHT22;3755;59.316;18.092;2023-08-08T02:53:11;16.60;99.90
7427;DHT22;3755;59.316;18.092;2023-08-08T02:55:38;16.60;99.90
7427;DHT22;3755;59.316;18.092;2023-08-08T02:58:05;16.50;99.90
7427;DHT22;3755;59.316;18.092;2023-08-08T03:00:32;16.50;99.90
7427;DHT22;3755;59.316;18.092;2023-08-08T03:02:59;16.50;99.90
7427;DHT22;3755;59.316;18.092;2023-08-08T03:05:26;16.50;99.90
7427;DHT22;3755;59.316;18.092;2023-08-08T03:07:55;16.50;99.90
7427;DHT22;3755;59.316;18.092;2023-08-08T03:10:23;16.50;99.90
7427;DHT22;3755;59.316;18.092;2023-08-08T03:12:50;16.50;99.90
7427;DHT22;3755;59.316;18.092;2023-08-08T03:15:17;16.50;99.90
7427;DHT22;3755;59.316;18.092;2023-08-08T03:17:44;16.40;99.90
7427;DHT22;3755;59.316;18.092;2023-08-08T03:20:11;16.40;99.90
7427;DHT22;3755;59.316;18.092;2023-08-08T03:22:38;16.40;99.90
7427;DHT22;3755;59.316;18.092;2023-08-08T03:25:08;16.50;99.90
7427;DHT22;3755;59.316;18.092;2023-08-08T03:27:35;16.40;99.90
7427;DHT22;3755;59.316;18.092;2023-08-08T03:30:03;16.50;99.90
7427;DHT22;3755;59.316;18.092;2023-08-08T03:32:30;16.50;99.90
7427;DHT22;3755;59.316;18.092;2023-08-08T03:34:57;16.40;99.90
7427;DHT22;3755;59.316;18.092;2023-08-08T03:37:24;16.40;99.90
7427;DHT22;3755;59.316;18.092;2023-08-08T03:39:51;16.40;99.90
7427;DHT22;3755;59.316;18.092;2023-08-08T03:42:20;16.40;99.90
7427;DHT22;3755;59.316;18.092;2023-08-08T03:44:47;16.40;99.90
7427;DHT22;3755;59.316;18.092;2023-08-08T03:47:14;16.30;99.90
7427;DHT22;3755;59.316;18.092;2023-08-08T03:49:41;16.30;99.90
7427;DHT22;3755;59.316;18.092;2023-08-08T03:52:08;16.20;99.90
7427;DHT22;3755;59.316;18.092;2023-08-08T03:54:35;16.20;99.90
7427;DHT22;3755;59.316;18.092;2023-08-08T03:57:03;16.20;99.90
7427;DHT22;3755;59.316;18.092;2023-08-08T03:59:32;16.10;99.90
7427;DHT22;3755;59.316;18.092;2023-08-08T04:01:59;16.10;99.90
7427;DHT22;3755;59.316;18.092;2023-08-08T04:04:26;16.10;99.90
7427;DHT22;3755;59.316;18.092;2023-08-08T04:06:53;16.10;99.90
7427;DHT22;3755;59.316;18.092;2023-08-08T04:09:20;16.00;99.90
7427;DHT22;3755;59.316;18.092;2023-08-08T04:11:47;16.00;99.90
7427;DHT22;3755;59.316;18.092;2023-08-08T04:14:14;15.90;99.90
7427;DHT22;3755;59.316;18.092;2023-08-08T04:16:43;15.90;99.90
7427;DHT22;3755;59.316;18.092;2023-08-08T04:19:10;15.80;99.90
7427;DHT22;3755;59.316;18.092;2023-08-08T04:21:37;15.70;99.90
7427;DHT22;3755;59.316;18.092;2023-08-08T04:24:05;15.60;99.90
7427;DHT22;3755;59.316;18.092;2023-08-08T04:26:33;15.50;99.90
7427;DHT22;3755;59.316;18.092;2023-08-08T04:29:00;15.60;99.90
7427;DHT22;3755;59.316;18.092;2023-08-08T04:31:28;15.60;99.90
7427;DHT22;3755;59.316;18.092;2023-08-08T04:33:57;15.60;99.90
7427;DHT22;3755;59.316;18.092;2023-08-08T04:36:26;15.50;99.90
7427;DHT22;3755;59.316;18.092;2023-08-08T04:38:53;15.50;99.90
7427;DHT22;3755;59.316;18.092;2023-08-08T04:41:21;15.40;99.90
7427;DHT22;3755;59.316;18.092;2023-08-08T04:43:48;15.40;99.90
7427;DHT22;3755;59.316;18.092;2023-08-08T04:46:15;15.40;99.90
7427;DHT22;3755;59.316;18.092;2023-08-08T04:48:42;15.40;99.90
7427;DHT22;3755;59.316;18.092;2023-08-08T04:51:11;15.50;99.90
7427;DHT22;3755;59.316;18.092;2023-08-08T04:53:38;15.40;99.90
7427;DHT22;3755;59.316;18.092;2023-08-08T04:56:05;15.40;99.90
7427;DHT22;3755;59.316;18.092;2023-08-08T04:58:32;15.40;99.90
7427;DHT22;3755;59.316;18.092;2023-08-08T05:00:59;15.40;99.90
7427;DHT22;3755;59.316;18.092;2023-08-08T05:03:26;15.40;99.90
7427;DHT22;3755;59.316;18.092;2023-08-08T05:05:54;15.40;99.90
7427;DHT22;3755;59.316;18.092;2023-08-08T05:08:23;15.40;99.90
7427;DHT22;3755;59.316;18.092;2023-08-08T05:10:50;15.40;99.90
7427;DHT22;3755;59.316;18.092;2023-08-08T05:13:17;15.40;99.90
7427;DHT22;3755;59.316;18.092;2023-08-08T05:15:46;15.40;99.90
7427;DHT22;3755;59.316;18.092;2023-08-08T05:18:13;15.30;99.90
7427;DHT22;3755;59.316;18.092;2023-08-08T05:20:40;15.30;99.90
7427;DHT22;3755;59.316;18.092;2023-08-08T05:23:07;15.40;99.90
7427;DHT22;3755;59.316;18.092;2023-08-08T05:25:36;15.40;99.90
7427;DHT22;3755;59.316;18.092;2023-08-08T05:28:04;15.40;99.90
7427;DHT22;3755;59.316;18.092;2023-08-08T05:30:31;15.50;99.90
7427;DHT22;3755;59.316;18.092;2023-08-08T05:32:58;15.50;99.90
7427;DHT22;3755;59.316;18.092;2023-08-08T05:35:25;15.50;99.90
7427;DHT22;3755;59.316;18.092;2023-08-08T05:37:52;15.50;99.90
7427;DHT22;3755;59.316;18.092;2023-08-08T05:40:20;15.50;99.90
7427;DHT22;3755;59.316;18.092;2023-08-08T05:42:48;15.50;99.90
7427;DHT22;3755;59.316;18.092;2023-08-08T05:45:16;15.60;99.90
7427;DHT22;3755;59.316;18.092;2023-08-08T05:47:43;15.60;99.90
7427;DHT22;3755;59.316;18.092;2023-08-08T05:50:10;15.60;99.90
7427;DHT22;3755;59.316;18.092;2023-08-08T05:52:37;15.70;99.90
7427;DHT22;3755;59.316;18.092;2023-08-08T05:55:05;15.80;99.90
7427;DHT22;3755;59.316;18.092;2023-08-08T05:57:32;15.80;99.90
7427;DHT22;3755;59.316;18.092;2023-08-08T06:00:01;15.70;99.90
7427;DHT22;3755;59.316;18.092;2023-08-08T06:02:28;15.80;99.90
7427;DHT22;3755;59.316;18.092;2023-08-08T06:04:56;15.80;99.90
7427;DHT22;3755;59.316;18.092;2023-08-08T06:07:23;15.80;99.90
7427;DHT22;3755;59.316;18.092;2023-08-08T06:09:50;15.70;99.90
7427;DHT22;3755;59.316;18.092;2023-08-08T06:12:17;15.70;99.90
7427;DHT22;3755;59.316;18.092;2023-08-08T06:14:44;15.70;99.90
7427;DHT22;3755;59.316;18.092;2023-08-08T06:17:13;15.80;99.90
7427;DHT22;3755;59.316;18.092;2023-08-08T06:19:40;15.90;99.90
7427;DHT22;3755;59.316;18.092;2023-08-08T06:22:07;16.00;99.90
7427;DHT22;3755;59.316;18.092;2023-08-08T06:24:35;15.90;99.90
7427;DHT22;3755;59.316;18.092;2023-08-08T06:27:02;16.00;99.90
7427;DHT22;3755;59.316;18.092;2023-08-08T06:29:30;15.90;99.90
7427;DHT22;3755;59.316;18.092;2023-08-08T06:31:57;16.00;99.90
7427;DHT22;3755;59.316;18.092;2023-08-08T06:34:25;16.00;99.90
7427;DHT22;3755;59.316;18.092;2023-08-08T06:36:53;16.10;99.90
7427;DHT22;3755;59.316;18.092;2023-08-08T06:39:20;16.10;99.90
7427;DHT22;3755;59.316;18.092;2023-08-08T06:41:47;16.10;99.90
7427;DHT22;3755;59.316;18.092;2023-08-08T06:44:15;16.10;99.90
7427;DHT22;3755;59.316;18.092;2023-08-08T06:46:42;16.10;99.90
7427;DHT22;3755;59.316;18.092;2023-08-08T06:49:09;16.10;99.90
7427;DHT22;3755;59.316;18.092;2023-08-08T06:51:38;16.00;99.90
7427;DHT22;3755;59.316;18.092;2023-08-08T06:54:05;16.00;99.90
7427;DHT22;3755;59.316;18.092;2023-08-08T06:56:33;16.10;99.90
7427;DHT22;3755;59.316;18.092;2023-08-08T06:59:01;16.10;99.90
7427;DHT22;3755;59.316;18.092;2023-08-08T07:01:28;16.10;99.90
7427;DHT22;3755;59.316;18.092;2023-08-08T07:03:55;16.20;99.90
7427;DHT22;3755;59.316;18.092;2023-08-08T07:06:23;16.20;99.90
7427;DHT22;3755;59.316;18.092;2023-08-08T07:08:51;16.20;99.90
7427;DHT22;3755;59.316;18.092;2023-08-08T07:11:19;16.30;99.90
7427;DHT22;3755;59.316;18.092;2023-08-08T07:13:46;16.30;99.90
7427;DHT22;3755;59.316;18.092;2023-08-08T07:16:13;16.30;99.90
7427;DHT22;3755;59.316;18.092;2023-08-08T07:18:40;16.30;99.90
7427;DHT22;3755;59.316;18.092;2023-08-08T07:21:08;16.30;99.90
7427;DHT22;3755;59.316;18.092;2023-08-08T07:23:35;16.30;99.90
7427;DHT22;3755;59.316;18.092;2023-08-08T07:26:03;16.30;99.90
7427;DHT22;3755;59.316;18.092;2023-08-08T07:28:30;16.40;99.90
7427;DHT22;3755;59.316;18.092;2023-08-08T07:30:58;16.40;99.90
7427;DHT22;3755;59.316;18.092;2023-08-08T07:33:25;16.40;99.90
7427;DHT22;3755;59.316;18.092;2023-08-08T07:35:52;16.40;99.90
7427;DHT22;3755;59.316;18.092;2023-08-08T07:38:20;16.30;99.90
7427;DHT22;3755;59.316;18.092;2023-08-08T07:40:47;16.40;99.90
7427;DHT22;3755;59.316;18.092;2023-08-08T07:43:16;16.50;99.90
7427;DHT22;3755;59.316;18.092;2023-08-08T07:45:43;16.50;99.90
7427;DHT22;3755;59.316;18.092;2023-08-08T07:48:10;16.60;99.90
7427;DHT22;3755;59.316;18.092;2023-08-08T07:50:37;16.70;99.90
7427;DHT22;3755;59.316;18.092;2023-08-08T07:53:05;16.90;99.90
7427;DHT22;3755;59.316;18.092;2023-08-08T07:55:32;17.00;99.90
7427;DHT22;3755;59.316;18.092;2023-08-08T07:57:59;17.10;99.90
7427;DHT22;3755;59.316;18.092;2023-08-08T08:00:28;17.50;99.90
7427;DHT22;3755;59.316;18.092;2023-08-08T08:02:56;17.80;99.90
7427;DHT22;3755;59.316;18.092;2023-08-08T08:05:23;18.10;99.90
7427;DHT22;3755;59.316;18.092;2023-08-08T08:07:50;18.10;99.90
7427;DHT22;3755;59.316;18.092;2023-08-08T08:10:17;18.00;99.90
7427;DHT22;3755;59.316;18.092;2023-08-08T08:12:44;17.80;99.90
7427;DHT22;3755;59.316;18.092;2023-08-08T08:15:12;17.70;99.90
7427;DHT22;3755;59.316;18.092;2023-08-08T08:17:41;17.70;99.90
7427;DHT22;3755;59.316;18.092;2023-08-08T08:20:09;17.70;99.90
7427;DHT22;3755;59.316;18.092;2023-08-08T08:22:38;17.80;99.90
7427;DHT22;3755;59.316;18.092;2023-08-08T08:25:05;18.00;99.90
7427;DHT22;3755;59.316;18.092;2023-08-08T08:27:35;17.80;99.90
7427;DHT22;3755;59.316;18.092;2023-08-08T08:30:03;17.80;99.90
7427;DHT22;3755;59.316;18.092;2023-08-08T08:32:32;17.80;99.90
7427;DHT22;3755;59.316;18.092;2023-08-08T08:35:02;17.70;99.90
7427;DHT22;3755;59.316;18.092;2023-08-08T08:37:29;17.60;99.90
7427;DHT22;3755;59.316;18.092;2023-08-08T08:39:57;17.60;99.90
7427;DHT22;3755;59.316;18.092;2023-08-08T08:42:24;17.50;99.90
7427;DHT22;3755;59.316;18.092;2023-08-08T08:44:57;17.50;99.90
7427;DHT22;3755;59.316;18.092;2023-08-08T08:47:25;17.50;99.90
7427;DHT22;3755;59.316;18.092;2023-08-08T08:49:55;17.30;99.90
7427;DHT22;3755;59.316;18.092;2023-08-08T08:52:25;17.40;99.90
7427;DHT22;3755;59.316;18.092;2023-08-08T08:54:52;17.30;99.90
7427;DHT22;3755;59.316;18.092;2023-08-08T08:57:21;17.50;99.90
7427;DHT22;3755;59.316;18.092;2023-08-08T08:59:49;17.40;99.90
7427;DHT22;3755;59.316;18.092;2023-08-08T09:02:17;17.30;99.90
7427;DHT22;3755;59.316;18.092;2023-08-08T09:04:45;17.20;99.90
7427;DHT22;3755;59.316;18.092;2023-08-08T09:07:13;17.10;99.90
7427;DHT22;3755;59.316;18.092;2023-08-08T09:09:43;17.10;99.90
7427;DHT22;3755;59.316;18.092;2023-08-08T09:12:11;17.20;99.90
7427;DHT22;3755;59.316;18.092;2023-08-08T09:14:40;17.10;99.90
7427;DHT22;3755;59.316;18.092;2023-08-08T09:17:11;17.10;99.90
7427;DHT22;3755;59.316;18.092;2023-08-08T09:19:42;17.20;99.90
7427;DHT22;3755;59.316;18.092;2023-08-08T09:22:09;17.30;99.90
7427;DHT22;3755;59.316;18.092;2023-08-08T09:24:38;17.30;99.90
7427;DHT22;3755;59.316;18.092;2023-08-08T09:27:08;17.40;99.90
7427;DHT22;3755;59.316;18.092;2023-08-08T09:29:35;17.40;99.90
7427;DHT22;3755;59.316;18.092;2023-08-08T09:32:03;17.50;99.90
7427;DHT22;3755;59.316;18.092;2023-08-08T09:34:31;17.50;99.90
7427;DHT22;3755;59.316;18.092;2023-08-08T09:36:58;17.30;99.90
7427;DHT22;3755;59.316;18.092;2023-08-08T09:39:26;17.40;99.90
7427;DHT22;3755;59.316;18.092;2023-08-08T09:41:56;17.40;99.90
7427;DHT22;3755;59.316;18.092;2023-08-08T09:44:26;17.30;99.90
7427;DHT22;3755;59.316;18.092;2023-08-08T09:46:55;17.30;99.90
7427;DHT22;3755;59.316;18.092;2023-08-08T09:49:23;17.20;99.90
7427;DHT22;3755;59.316;18.092;2023-08-08T09:51:50;17.20;99.90
7427;DHT22;3755;59.316;18.092;2023-08-08T09:54:18;17.20;99.90
7427;DHT22;3755;59.316;18.092;2023-08-08T09:56:45;17.20;99.90
7427;DHT22;3755;59.316;18.092;2023-08-08T09:59:13;17.30;99.90
7427;DHT22;3755;59.316;18.092;2023-08-08T10:01:42;16.90;99.90
7427;DHT22;3755;59.316;18.092;2023-08-08T10:04:11;16.90;99.90
7427;DHT22;3755;59.316;18.092;2023-08-08T10:06:38;16.90;99.90
7427;DHT22;3755;59.316;18.092;2023-08-08T10:09:06;16.80;99.90
7427;DHT22;3755;59.316;18.092;2023-08-08T10:11:34;16.80;99.90
7427;DHT22;3755;59.316;18.092;2023-08-08T10:14:03;16.50;99.90
7427;DHT22;3755;59.316;18.092;2023-08-08T10:16:32;16.50;99.90
7427;DHT22;3755;59.316;18.092;2023-08-08T10:19:02;16.50;99.90
7427;DHT22;3755;59.316;18.092;2023-08-08T10:21:33;16.70;99.90
7427;DHT22;3755;59.316;18.092;2023-08-08T10:24:04;16.80;99.90
7427;DHT22;3755;59.316;18.092;2023-08-08T10:26:33;16.80;99.90
7427;DHT22;3755;59.316;18.092;2023-08-08T10:29:01;16.80;99.90
7427;DHT22;3755;59.316;18.092;2023-08-08T10:31:33;16.60;99.90
7427;DHT22;3755;59.316;18.092;2023-08-08T10:34:04;16.40;99.90
7427;DHT22;3755;59.316;18.092;2023-08-08T10:36:48;16.30;99.90
7427;DHT22;3755;59.316;18.092;2023-08-08T10:39:16;16.10;99.90
7427;DHT22;3755;59.316;18.092;2023-08-08T10:41:48;16.10;99.90
7427;DHT22;3755;59.316;18.092;2023-08-08T10:44:22;16.00;99.90
7427;DHT22;3755;59.316;18.092;2023-08-08T10:46:51;16.10;99.90
7427;DHT22;3755;59.316;18.092;2023-08-08T10:49:21;16.00;99.90
7427;DHT22;3755;59.316;18.092;2023-08-08T10:51:50;16.10;99.90
7427;DHT22;3755;59.316;18.092;2023-08-08T10:54:19;16.40;99.90
7427;DHT22;3755;59.316;18.092;2023-08-08T10:56:49;16.30;99.90
7427;DHT22;3755;59.316;18.092;2023-08-08T10:59:18;16.20;99.90
7427;DHT22;3755;59.316;18.092;2023-08-08T11:01:49;16.30;99.90
7427;DHT22;3755;59.316;18.092;2023-08-08T11:04:20;16.40;99.90
7427;DHT22;3755;59.316;18.092;2023-08-08T11:06:49;16.50;99.90
7427;DHT22;3755;59.316;18.092;2023-08-08T11:09:16;16.60;99.90
7427;DHT22;3755;59.316;18.092;2023-08-08T11:11:44;16.50;99.90
7427;DHT22;3755;59.316;18.092;2023-08-08T11:14:13;16.60;99.90
7427;DHT22;3755;59.316;18.092;2023-08-08T11:16:41;16.60;99.90
7427;DHT22;3755;59.316;18.092;2023-08-08T11:19:09;16.60;99.90
7427;DHT22;3755;59.316;18.092;2023-08-08T11:21:40;16.60;99.90
7427;DHT22;3755;59.316;18.092;2023-08-08T11:24:10;16.50;99.90
7427;DHT22;3755;59.316;18.092;2023-08-08T11:26:39;16.60;99.90
7427;DHT22;3755;59.316;18.092;2023-08-08T11:29:06;16.50;99.90
7427;DHT22;3755;59.316;18.092;2023-08-08T11:31:34;16.60;99.90
7427;DHT22;3755;59.316;18.092;2023-08-08T11:34:03;16.50;99.90
7427;DHT22;3755;59.316;18.092;2023-08-08T11:36:31;16.70;99.90
7427;DHT22;3755;59.316;18.092;2023-08-08T11:39:01;17.20;99.90
7427;DHT22;3755;59.316;18.092;2023-08-08T11:41:34;17.50;99.90
7427;DHT22;3755;59.316;18.092;2023-08-08T11:44:02;17.50;99.90
7427;DHT22;3755;59.316;18.092;2023-08-08T11:46:30;17.50;99.90
7427;DHT22;3755;59.316;18.092;2023-08-08T11:49:02;17.20;99.90
7427;DHT22;3755;59.316;18.092;2023-08-08T11:51:32;17.40;99.90
7427;DHT22;3755;59.316;18.092;2023-08-08T11:54:02;17.60;99.90
7427;DHT22;3755;59.316;18.092;2023-08-08T11:56:33;17.70;99.90
7427;DHT22;3755;59.316;18.092;2023-08-08T11:59:01;17.30;99.90
7427;DHT22;3755;59.316;18.092;2023-08-08T12:01:30;17.40;99.90
7427;DHT22;3755;59.316;18.092;2023-08-08T12:03:57;17.70;99.90
7427;DHT22;3755;59.316;18.092;2023-08-08T12:06:28;18.10;99.90
7427;DHT22;3755;59.316;18.092;2023-08-08T12:08:56;18.10;99.90
7427;DHT22;3755;59.316;18.092;2023-08-08T12:11:27;18.00;99.90
7427;DHT22;3755;59.316;18.092;2023-08-08T12:13:59;17.80;99.90
7427;DHT22;3755;59.316;18.092;2023-08-08T12:16:28;17.70;99.90
7427;DHT22;3755;59.316;18.092;2023-08-08T12:18:56;17.60;99.90
7427;DHT22;3755;59.316;18.092;2023-08-08T12:21:24;17.40;99.90
7427;DHT22;3755;59.316;18.092;2023-08-08T12:23:51;17.40;99.90
7427;DHT22;3755;59.316;18.092;2023-08-08T12:26:18;17.50;99.90
7427;DHT22;3755;59.316;18.092;2023-08-08T12:28:47;17.30;99.90
7427;DHT22;3755;59.316;18.092;2023-08-08T12:31:16;17.00;99.90
7427;DHT22;3755;59.316;18.092;2023-08-08T12:33:43;17.00;99.90
7427;DHT22;3755;59.316;18.092;2023-08-08T12:36:11;16.90;99.90
7427;DHT22;3755;59.316;18.092;2023-08-08T12:38:39;17.00;99.90
7427;DHT22;3755;59.316;18.092;2023-08-08T12:41:07;17.10;99.90
7427;DHT22;3755;59.316;18.092;2023-08-08T12:43:36;17.00;99.90
7427;DHT22;3755;59.316;18.092;2023-08-08T12:46:05;17.00;99.90
7427;DHT22;3755;59.316;18.092;2023-08-08T12:48:32;16.90;99.90
7427;DHT22;3755;59.316;18.092;2023-08-08T12:50:59;17.10;99.90
7427;DHT22;3755;59.316;18.092;2023-08-08T12:53:26;17.20;99.90
7427;DHT22;3755;59.316;18.092;2023-08-08T12:55:54;17.30;99.90
7427;DHT22;3755;59.316;18.092;2023-08-08T12:58:21;17.30;99.90
7427;DHT22;3755;59.316;18.092;2023-08-08T13:00:48;17.40;99.90
7427;DHT22;3755;59.316;18.092;2023-08-08T13:03:16;17.50;99.90
7427;DHT22;3755;59.316;18.092;2023-08-08T13:05:44;17.70;99.90
7427;DHT22;3755;59.316;18.092;2023-08-08T13:08:11;17.80;99.90
7427;DHT22;3755;59.316;18.092;2023-08-08T13:10:40;17.90;99.90
7427;DHT22;3755;59.316;18.092;2023-08-08T13:13:07;17.80;99.90
7427;DHT22;3755;59.316;18.092;2023-08-08T13:15:35;18.00;99.90
7427;DHT22;3755;59.316;18.092;2023-08-08T13:18:03;17.90;99.90
7427;DHT22;3755;59.316;18.092;2023-08-08T13:20:32;17.60;99.90
7427;DHT22;3755;59.316;18.092;2023-08-08T13:22:59;17.50;99.90
7427;DHT22;3755;59.316;18.092;2023-08-08T13:25:27;17.50;99.90
7427;DHT22;3755;59.316;18.092;2023-08-08T13:27:54;17.20;99.90
7427;DHT22;3755;59.316;18.092;2023-08-08T13:30:21;17.30;99.90
7427;DHT22;3755;59.316;18.092;2023-08-08T13:32:49;17.30;99.90
7427;DHT22;3755;59.316;18.092;2023-08-08T13:35:16;17.40;99.90
7427;DHT22;3755;59.316;18.092;2023-08-08T13:37:45;17.40;99.90
7427;DHT22;3755;59.316;18.092;2023-08-08T13:40:15;17.50;99.90
7427;DHT22;3755;59.316;18.092;2023-08-08T13:42:42;17.40;99.90
7427;DHT22;3755;59.316;18.092;2023-08-08T13:45:13;17.40;99.90
7427;DHT22;3755;59.316;18.092;2023-08-08T13:47:40;17.40;99.90
7427;DHT22;3755;59.316;18.092;2023-08-08T13:50:08;17.40;99.90
7427;DHT22;3755;59.316;18.092;2023-08-08T13:52:36;17.50;99.90
7427;DHT22;3755;59.316;18.092;2023-08-08T13:55:06;17.60;99.90
7427;DHT22;3755;59.316;18.092;2023-08-08T13:57:33;17.70;99.90
7427;DHT22;3755;59.316;18.092;2023-08-08T14:00:00;17.60;99.90
7427;DHT22;3755;59.316;18.092;2023-08-08T14:02:28;17.10;99.90
7427;DHT22;3755;59.316;18.092;2023-08-08T14:04:56;17.00;99.90
7427;DHT22;3755;59.316;18.092;2023-08-08T14:07:24;16.90;99.90
7427;DHT22;3755;59.316;18.092;2023-08-08T14:09:51;16.80;99.90
7427;DHT22;3755;59.316;18.092;2023-08-08T14:12:20;16.80;99.90
7427;DHT22;3755;59.316;18.092;2023-08-08T14:14:47;16.90;99.90
7427;DHT22;3755;59.316;18.092;2023-08-08T14:17:14;16.90;99.90
7427;DHT22;3755;59.316;18.092;2023-08-08T14:19:42;17.10;99.90
7427;DHT22;3755;59.316;18.092;2023-08-08T14:22:09;17.10;99.90
7427;DHT22;3755;59.316;18.092;2023-08-08T14:24:36;17.00;99.90
7427;DHT22;3755;59.316;18.092;2023-08-08T14:27:03;16.70;99.90
7427;DHT22;3755;59.316;18.092;2023-08-08T14:29:33;16.60;99.90
7427;DHT22;3755;59.316;18.092;2023-08-08T14:32:01;16.50;99.90
7427;DHT22;3755;59.316;18.092;2023-08-08T14:34:29;16.20;99.90
7427;DHT22;3755;59.316;18.092;2023-08-08T14:36:56;16.10;99.90
7427;DHT22;3755;59.316;18.092;2023-08-08T14:39:24;16.10;99.90
7427;DHT22;3755;59.316;18.092;2023-08-08T14:41:51;16.20;99.90
7427;DHT22;3755;59.316;18.092;2023-08-08T14:44:18;16.10;99.90
7427;DHT22;3755;59.316;18.092;2023-08-08T14:46:47;16.10;99.90
7427;DHT22;3755;59.316;18.092;2023-08-08T14:49:14;16.10;99.90
7427;DHT22;3755;59.316;18.092;2023-08-08T14:51:42;16.10;99.90
7427;DHT22;3755;59.316;18.092;2023-08-08T14:54:09;16.10;99.90
7427;DHT22;3755;59.316;18.092;2023-08-08T14:56:36;16.00;99.90
7427;DHT22;3755;59.316;18.092;2023-08-08T14:59:03;15.90;99.90
7427;DHT22;3755;59.316;18.092;2023-08-08T15:01:31;15.80;99.90
7427;DHT22;3755;59.316;18.092;2023-08-08T15:04:00;15.60;99.90
7427;DHT22;3755;59.316;18.092;2023-08-08T15:06:27;15.50;99.90
7427;DHT22;3755;59.316;18.092;2023-08-08T15:08:54;15.50;99.90
7427;DHT22;3755;59.316;18.092;2023-08-08T15:11:21;15.40;99.90
7427;DHT22;3755;59.316;18.092;2023-08-08T15:13:48;15.20;99.90
7427;DHT22;3755;59.316;18.092;2023-08-08T15:16:16;15.30;99.90
7427;DHT22;3755;59.316;18.092;2023-08-08T15:18:43;15.10;99.90
7427;DHT22;3755;59.316;18.092;2023-08-08T15:21:12;15.10;99.90
7427;DHT22;3755;59.316;18.092;2023-08-08T15:23:45;15.10;99.90
7427;DHT22;3755;59.316;18.092;2023-08-08T15:26:12;14.80;99.90
7427;DHT22;3755;59.316;18.092;2023-08-08T15:28:40;14.80;99.90
7427;DHT22;3755;59.316;18.092;2023-08-08T15:31:07;14.90;99.90
7427;DHT22;3755;59.316;18.092;2023-08-08T15:33:34;14.90;99.90
7427;DHT22;3755;59.316;18.092;2023-08-08T15:36:03;15.00;99.90
7427;DHT22;3755;59.316;18.092;2023-08-08T15:38:32;14.90;99.90
7427;DHT22;3755;59.316;18.092;2023-08-08T15:40:59;14.80;99.90
7427;DHT22;3755;59.316;18.092;2023-08-08T15:43:26;14.80;99.90
7427;DHT22;3755;59.316;18.092;2023-08-08T15:45:54;14.80;99.90
7427;DHT22;3755;59.316;18.092;2023-08-08T15:48:22;14.60;99.90